.
WxDataArchive / Data Records for 2007-09-19
2007-09-18 September 2007 2007-09-20

Data Records for Wednesday, 19 September 2007

Time	Temp	Chill	HIndex	Humid	Dewpt	 Wind 	HiWind	WindDir	Rain 	Barom 
-----	----	-----	------	-----	-----	------	------	-------	-----	----- 
00:00	64.2	64.2	64.2	80	57.9	0	0	---	0.00	30.081 
00:05	63.9	63.9	63.9	81	57.9	0	0	---	0.00	30.078 
00:10	63.5	63.5	63.5	82	57.9	0	0	---	0.00	30.079 
00:15	63.4	63.4	63.4	83	58.1	0	0	---	0.00	30.078 
00:20	63.1	63.1	63.1	83	57.8	0	0	---	0.00	30.077 
00:25	62.7	62.7	62.7	84	57.8	0	0	---	0.00	30.076 
00:30	62.4	62.4	62.4	85	57.8	0	0	---	0.00	30.075 
00:35	62.3	62.3	62.3	86	58.1	0	0	---	0.00	30.073 
00:40	62.0	62.0	62.0	86	57.8	0	0	---	0.00	30.072 
00:45	61.8	61.8	61.8	86	57.6	0	0	---	0.00	30.072 
00:50	61.6	61.6	61.6	87	57.7	0	0	---	0.00	30.072 
00:55	61.5	61.5	61.5	87	57.6	0	0	---	0.00	30.072 
01:00	61.3	61.3	61.3	88	57.7	0	0	---	0.00	30.071 
01:05	61.2	61.2	61.2	88	57.6	0	0	---	0.00	30.071 
01:10	60.9	60.9	60.9	89	57.6	0	0	---	0.00	30.069 
01:15	60.7	60.7	60.7	89	57.4	0	0	---	0.00	30.069 
01:20	60.5	60.5	60.5	90	57.5	0	0	---	0.00	30.068 
01:25	60.5	60.5	60.5	90	57.5	0	0	---	0.00	30.067 
01:30	60.4	60.4	60.4	90	57.4	0	0	---	0.00	30.065 
01:35	60.2	60.2	60.2	91	57.6	0	0	---	0.00	30.062 
01:40	60.1	60.1	60.1	91	57.5	0	0	---	0.00	30.063 
01:45	60.1	60.1	60.1	91	57.5	0	0	---	0.00	30.058 
01:50	60.1	60.1	60.1	91	57.5	0	0	---	0.00	30.056 
01:55	60.1	60.1	60.1	91	57.5	0	0	---	0.00	30.054 
02:00	60.1	60.1	60.1	90	57.2	0	0	---	0.00	30.055 
02:05	60.1	60.1	60.1	90	57.2	0	0	---	0.00	30.055 
02:10	60.1	60.1	60.1	90	57.2	0	0	---	0.00	30.055 
02:15	60.1	60.1	60.1	90	57.2	0	0	---	0.00	30.054 
02:20	60.1	60.1	60.1	89	56.8	0	0	---	0.00	30.053 
02:25	60.1	60.1	60.1	89	56.8	0	0	---	0.00	30.053 
02:30	60.1	60.1	60.1	89	56.8	0	0	---	0.00	30.055 
02:35	60.1	60.1	60.1	89	56.8	0	0	---	0.00	30.056 
02:40	60.1	60.1	60.1	89	56.8	0	0	---	0.00	30.057 
02:45	59.9	59.9	59.9	89	56.6	0	0	---	0.00	30.055 
02:50	59.9	59.9	59.9	89	56.6	0	0	---	0.00	30.058 
02:55	59.8	59.8	59.8	89	56.5	0	0	---	0.00	30.059 
03:00	59.6	59.6	59.6	89	56.4	0	0	---	0.00	30.062 
03:05	59.6	59.6	59.6	90	56.7	0	0	---	0.00	30.063 
03:10	59.5	59.5	59.5	90	56.6	0	0	---	0.00	30.064 
03:15	59.3	59.3	59.3	90	56.4	0	0	---	0.00	30.068 
03:20	59.2	59.2	59.2	90	56.3	0	0	---	0.00	30.069 
03:25	59.0	59.0	59.0	90	56.1	0	0	---	0.00	30.072 
03:30	59.0	59.0	59.0	91	56.4	0	0	---	0.00	30.071 
03:35	58.9	58.9	58.9	91	56.3	0	0	---	0.00	30.072 
03:40	58.9	58.9	58.9	91	56.3	0	0	---	0.00	30.073 
03:45	58.9	58.9	58.9	92	56.6	0	0	---	0.00	30.074 
03:50	58.9	58.9	58.9	92	56.6	0	0	---	0.00	30.079 
03:55	59.0	59.0	59.0	92	56.7	0	0	---	0.00	30.080 
04:00	59.0	59.0	59.0	92	56.7	0	0	---	0.00	30.083 
04:05	58.9	58.9	58.9	92	56.6	0	0	---	0.00	30.083 
04:10	58.9	58.9	58.9	92	56.6	0	0	---	0.00	30.082 
04:15	58.9	58.9	58.9	92	56.6	0	0	---	0.00	30.081 
04:20	58.7	58.7	58.7	92	56.4	0	0	---	0.00	30.083 
04:25	58.7	58.7	58.7	92	56.4	0	0	---	0.00	30.084 
04:30	58.6	58.6	58.6	92	56.3	0	0	---	0.00	30.084 
04:35	58.6	58.6	58.6	93	56.6	0	0	---	0.00	30.085 
04:40	58.7	58.7	58.7	93	56.7	0	0	---	0.00	30.086 
04:45	58.7	58.7	58.7	93	56.7	0	0	---	0.00	30.086 
04:50	58.7	58.7	58.7	93	56.7	0	0	---	0.00	30.087 
04:55	58.7	58.7	58.7	93	56.7	0	0	---	0.00	30.088 
05:00	58.6	58.6	58.6	93	56.6	0	0	---	0.00	30.091 
05:05	58.6	58.6	58.6	93	56.6	0	0	---	0.00	30.096 
05:10	58.4	58.4	58.4	93	56.4	0	0	---	0.00	30.101 
05:15	58.4	58.4	58.4	93	56.4	0	0	---	0.00	30.102 
05:20	58.4	58.4	58.4	94	56.7	0	0	---	0.00	30.102 
05:25	58.4	58.4	58.4	94	56.7	0	0	---	0.00	30.104 
05:30	58.4	58.4	58.4	94	56.7	0	0	---	0.00	30.103 
05:35	58.3	58.3	58.3	94	56.6	0	0	---	0.00	30.103 
05:40	58.3	58.3	58.3	94	56.6	0	0	---	0.00	30.102 
05:45	58.1	58.1	58.1	94	56.4	0	0	---	0.00	30.103 
05:50	58.1	58.1	58.1	94	56.4	0	0	---	0.00	30.103 
05:55	58.0	58.0	58.0	94	56.3	0	0	---	0.00	30.105 
06:00	58.0	58.0	58.0	95	56.6	0	0	---	0.00	30.104 
06:05	58.0	58.0	58.0	95	56.6	0	0	---	0.00	30.108 
06:10	57.8	57.8	57.8	95	56.4	0	0	---	0.00	30.109 
06:15	57.8	57.8	57.8	95	56.4	0	0	---	0.00	30.109 
06:20	57.6	57.6	57.6	95	56.2	0	0	---	0.00	30.110 
06:25	57.5	57.5	57.5	95	56.1	0	0	---	0.00	30.110 
06:30	57.5	57.5	57.5	95	56.1	0	0	---	0.00	30.110 
06:35	57.6	57.6	57.6	96	56.5	0	0	---	0.00	30.110 
06:40	57.8	57.8	57.8	96	56.7	0	0	---	0.00	30.110 
06:45	58.0	58.0	58.0	96	56.9	0	0	---	0.00	30.110 
06:50	58.1	58.1	58.1	96	57.0	0	0	---	0.00	30.111 
06:55	58.3	58.3	58.3	96	57.2	0	0	---	0.00	30.110 
07:00	58.6	58.6	58.6	96	57.5	0	0	---	0.00	30.110 
07:05	58.7	58.7	58.7	96	57.6	0	0	---	0.00	30.113 
07:10	59.0	59.0	59.0	96	57.9	0	0	---	0.00	30.113 
07:15	59.5	59.5	59.5	96	58.4	0	0	---	0.00	30.111 
07:20	59.9	59.9	59.9	96	58.8	0	0	---	0.00	30.111 
07:25	60.2	60.2	60.2	96	59.1	0	0	---	0.00	30.110 
07:30	60.7	60.7	60.7	96	59.6	0	1	158	0.00	30.103 
07:35	61.3	61.3	61.3	96	60.1	0	1	158	0.00	30.103 
07:40	61.8	61.8	61.8	93	59.8	0	1	158	0.00	30.100 
07:45	62.3	62.3	62.3	92	59.9	0	1	158	0.00	30.101 
07:50	62.9	62.9	62.9	90	59.9	0	0	---	0.00	30.096 
07:55	63.5	63.5	63.5	88	59.9	0	1	158	0.00	30.096 
08:00	64.0	64.0	64.0	87	60.0	0	2	180	0.00	30.097 
08:05	64.5	64.5	64.5	86	60.2	0	2	---	0.00	30.096 
08:10	65.2	65.2	65.2	84	60.2	0	1	180	0.00	30.094 
08:15	65.6	65.6	65.6	82	59.9	0	2	180	0.00	30.091 
08:20	66.3	66.3	66.3	81	60.3	0	2	180	0.00	30.090 
08:25	66.9	66.9	66.9	80	60.5	0	1	202	0.00	30.089 
08:30	67.4	67.4	67.4	79	60.7	0	1	202	0.00	30.086 
08:35	67.9	67.9	67.9	77	60.4	0	1	202	0.00	30.084 
08:40	68.6	68.6	68.6	75	60.3	1	2	202	0.00	30.080 
08:45	69.4	69.4	69.4	73	60.4	1	3	225	0.00	30.082 
08:50	70.3	70.3	70.3	73	61.2	1	2	248	0.00	30.086 
08:55	70.8	70.8	70.8	71	60.9	0	2	248	0.00	30.086 
09:00	71.5	71.5	71.5	70	61.2	0	2	248	0.00	30.086 
09:05	72.1	72.1	72.1	68	60.9	1	2	248	0.00	30.087 
09:10	72.7	72.7	72.7	67	61.1	1	4	248	0.00	30.086 
09:15	73.2	73.2	73.2	67	61.6	1	2	248	0.00	30.088 
09:20	73.5	73.5	73.5	66	61.4	1	4	248	0.00	30.091 
09:25	73.9	73.9	73.9	65	61.4	1	5	248	0.00	30.091 
09:30	74.2	74.2	74.2	65	61.7	0	2	248	0.00	30.092 
09:35	74.6	74.6	74.6	64	61.6	1	4	270	0.00	30.090 
09:40	74.9	74.9	74.9	64	61.9	1	4	270	0.00	30.088 
09:45	75.3	75.3	77.4	64	62.3	1	3	270	0.00	30.090 
09:50	75.8	75.8	77.8	62	61.8	1	3	248	0.00	30.089 
09:55	76.1	76.1	78.0	64	63.0	1	3	248	0.00	30.088 
10:00	76.7	76.7	78.5	63	63.1	1	3	248	0.00	30.088 
10:05	77.0	77.0	78.8	63	63.4	1	3	270	0.00	30.090 
10:10	77.4	77.4	79.2	62	63.3	2	4	248	0.00	30.096 
10:15	77.6	77.6	79.3	61	63.1	1	3	270	0.00	30.094 
10:20	77.9	77.9	79.6	62	63.8	1	3	270	0.00	30.096 
10:25	78.5	78.5	80.2	60	63.4	1	4	248	0.00	30.093 
10:30	78.5	78.5	80.0	58	62.5	1	4	248	0.00	30.092 
10:35	78.6	78.6	80.2	59	63.1	1	4	248	0.00	30.093 
10:40	78.8	78.8	80.4	59	63.2	2	6	248	0.00	30.092 
10:45	78.8	78.8	80.3	58	62.8	2	3	248	0.00	30.091 
10:50	79.0	79.0	80.5	58	62.9	1	4	248	0.00	30.094 
10:55	79.6	79.6	81.2	58	63.5	1	6	248	0.00	30.093 
11:00	79.9	79.9	81.6	59	64.3	2	5	270	0.00	30.086 
11:05	80.1	80.1	81.7	58	64.0	1	4	270	0.00	30.088 
11:10	80.7	80.7	82.4	58	64.5	1	4	270	0.00	30.084 
11:15	81.1	81.1	82.6	56	63.9	1	4	248	0.00	30.084 
11:20	81.2	81.2	83.3	60	66.0	1	2	292	0.00	30.084 
11:25	81.4	81.4	82.8	55	63.7	2	5	292	0.00	30.083 
11:30	81.6	81.6	83.2	56	64.4	1	3	248	0.00	30.085 
11:35	82.0	82.0	83.6	55	64.2	1	3	248	0.00	30.083 
11:40	82.0	82.0	83.4	54	63.7	2	5	248	0.00	30.081 
11:45	82.2	82.2	84.0	56	64.9	1	4	248	0.00	30.081 
11:50	82.4	82.4	83.9	54	64.1	1	3	270	0.00	30.080 
11:55	82.6	82.6	84.0	53	63.7	1	6	270	0.00	30.078 
12:00	83.0	83.0	84.9	55	65.1	1	4	270	0.00	30.079 
12:05	83.0	83.0	84.9	55	65.1	1	3	270	0.00	30.076 
12:10	82.8	82.8	84.4	54	64.4	2	5	248	0.00	30.078 
12:15	82.8	82.8	84.2	53	63.9	2	6	248	0.00	30.078 
12:20	83.0	83.0	84.9	55	65.1	1	3	270	0.00	30.079 
12:25	83.6	83.6	85.7	55	65.7	1	3	248	0.00	30.078 
12:30	83.8	83.8	85.5	53	64.8	2	5	270	0.00	30.073 
12:35	83.8	83.8	85.7	54	65.3	2	7	248	0.00	30.071 
12:40	83.8	83.8	85.1	51	63.7	2	5	270	0.00	30.071 
12:45	83.8	83.8	85.5	53	64.8	2	5	248	0.00	30.068 
12:50	84.0	84.0	85.6	52	64.4	2	5	248	0.00	30.071 
12:55	83.8	83.8	85.5	53	64.8	2	3	270	0.00	30.070 
13:00	84.1	84.1	85.7	52	64.5	1	4	248	0.00	30.069 
13:05	84.0	84.0	86.0	54	65.5	1	4	248	0.00	30.069 
13:10	84.1	84.1	85.7	52	64.5	0	2	270	0.00	30.067 
13:15	84.5	84.5	86.0	51	64.4	1	5	248	0.00	30.067 
13:20	84.0	84.0	85.6	52	64.4	1	4	270	0.00	30.067 
13:25	83.4	83.4	85.0	53	64.4	0	1	270	0.00	30.066 
13:30	83.0	83.0	84.7	54	64.6	1	2	270	0.00	30.066 
13:35	83.2	83.2	84.9	54	64.8	1	6	0	0.00	30.065 
13:40	83.8	83.8	86.0	55	65.9	1	3	248	0.00	30.064 
13:45	84.0	84.0	85.8	53	65.0	1	3	248	0.00	30.065 
13:50	84.1	84.1	85.9	53	65.1	0	1	0	0.00	30.063 
13:55	84.7	84.7	87.0	54	66.2	1	2	292	0.00	30.060 
14:00	84.7	84.7	86.5	52	65.1	2	4	270	0.00	30.061 
14:05	84.7	84.7	86.5	52	65.1	1	3	270	0.00	30.060 
14:10	84.3	84.3	86.0	52	64.7	1	2	270	0.00	30.060 
14:15	84.0	84.0	86.0	54	65.5	0	2	270	0.00	30.058 
14:20	84.5	84.5	86.5	53	65.5	1	2	315	0.00	30.055 
14:25	84.9	84.9	86.8	52	65.3	1	2	270	0.00	30.053 
14:30	84.5	84.5	86.3	52	64.9	1	2	270	0.00	30.052 
14:35	84.3	84.3	86.5	54	65.8	0	2	270	0.00	30.052 
14:40	84.1	84.1	85.9	53	65.1	1	3	270	0.00	30.052 
14:45	84.3	84.3	86.5	54	65.8	0	2	270	0.00	30.051 
14:50	84.9	84.9	87.3	54	66.4	0	2	270	0.00	30.050 
14:55	85.3	85.3	87.4	52	65.6	1	2	270	0.00	30.047 
15:00	85.5	85.5	87.7	52	65.8	0	2	270	0.00	30.046 
15:05	85.7	85.7	87.7	51	65.5	1	3	270	0.00	30.045 
15:10	85.9	85.9	87.7	50	65.1	1	3	292	0.00	30.042 
15:15	85.3	85.3	86.9	50	64.5	1	3	270	0.00	30.042 
15:20	84.9	84.9	86.6	51	64.7	1	2	270	0.00	30.043 
15:25	84.1	84.1	85.9	53	65.1	0	1	270	0.00	30.042 
15:30	83.6	83.6	85.5	54	65.2	0	1	270	0.00	30.043 
15:35	83.8	83.8	85.5	53	64.8	0	1	270	0.00	30.045 
15:40	83.8	83.8	85.5	53	64.8	0	1	315	0.00	30.042 
15:45	83.8	83.8	85.7	54	65.3	0	0	---	0.00	30.044 
15:50	83.4	83.4	85.4	55	65.5	0	2	315	0.00	30.046 
15:55	83.2	83.2	85.3	56	65.8	0	1	315	0.00	30.047 
16:00	83.2	83.2	85.3	56	65.8	0	1	315	0.00	30.047 
16:05	83.8	83.8	86.0	55	65.9	0	1	315	0.00	30.048 
16:10	84.0	84.0	85.8	53	65.0	0	2	315	0.00	30.049 
16:15	84.1	84.1	86.2	54	65.6	0	1	315	0.00	30.047 
16:20	83.8	83.8	85.7	54	65.3	0	2	315	0.00	30.047 
16:25	83.6	83.6	85.5	54	65.2	0	1	315	0.00	30.048 
16:30	83.6	83.6	85.7	55	65.7	0	1	315	0.00	30.048 
16:35	83.6	83.6	85.5	54	65.2	0	1	315	0.00	30.048 
16:40	83.6	83.6	85.7	55	65.7	0	1	315	0.00	30.048 
16:45	83.2	83.2	84.9	54	64.8	0	2	315	0.00	30.047 
16:50	83.0	83.0	85.1	56	65.7	0	1	315	0.00	30.049 
16:55	82.6	82.6	84.3	55	64.8	0	0	---	0.00	30.048 
17:00	82.4	82.4	84.2	56	65.1	0	1	315	0.00	30.049 
17:05	82.4	82.4	84.2	56	65.1	0	0	---	0.00	30.049 
17:10	82.6	82.6	84.7	57	65.8	0	0	---	0.00	30.048 
17:15	82.6	82.6	85.1	59	66.8	0	0	---	0.00	30.047 
17:20	82.4	82.4	84.6	58	66.1	0	0	---	0.00	30.047 
17:25	82.4	82.4	84.8	59	66.6	0	0	---	0.00	30.048 
17:30	82.0	82.0	84.6	61	67.2	0	0	---	0.00	30.049 
17:35	81.8	81.8	84.1	60	66.5	0	0	---	0.00	30.051 
17:40	81.6	81.6	83.9	60	66.3	0	0	---	0.00	30.053 
17:45	81.4	81.4	83.8	61	66.6	0	0	---	0.00	30.055 
17:50	81.2	81.2	83.3	60	66.0	0	0	---	0.00	30.055 
17:55	81.1	81.1	83.3	61	66.4	0	0	---	0.00	30.054 
18:00	80.9	80.9	83.2	62	66.6	0	0	---	0.00	30.055 
18:05	80.9	80.9	83.2	62	66.6	0	0	---	0.00	30.054 
18:10	80.7	80.7	82.9	62	66.4	0	0	---	0.00	30.054 
18:15	80.5	80.5	82.7	62	66.3	0	0	---	0.00	30.055 
18:20	80.5	80.5	82.8	63	66.7	0	0	---	0.00	30.056 
18:25	80.1	80.1	82.3	63	66.3	0	0	---	0.00	30.057 
18:30	79.8	79.8	82.0	64	66.5	0	0	---	0.00	30.057 
18:35	79.6	79.6	81.8	65	66.8	0	0	---	0.00	30.058 
18:40	79.0	79.0	81.1	66	66.6	0	0	---	0.00	30.058 
18:45	78.6	78.6	80.7	67	66.7	0	0	---	0.00	30.059 
18:50	78.3	78.3	80.3	68	66.8	0	0	---	0.00	30.059 
18:55	77.9	77.9	79.9	69	66.9	0	0	---	0.00	30.061 
19:00	77.6	77.6	79.5	70	67.0	0	0	---	0.00	30.062 
19:05	77.2	77.2	79.0	71	67.0	0	0	---	0.00	30.059 
19:10	76.8	76.8	78.5	72	67.1	0	0	---	0.00	30.061 
19:15	76.5	76.5	78.1	73	67.2	0	0	---	0.00	30.064 
19:20	76.0	76.0	77.4	74	67.1	0	0	---	0.00	30.065 
19:25	75.6	75.6	77.0	74	66.7	0	0	---	0.00	30.065 
19:30	75.3	75.3	76.5	75	66.8	0	0	---	0.00	30.066 
19:35	75.1	75.1	76.2	76	67.0	0	0	---	0.00	30.065 
19:40	74.7	74.7	74.7	77	67.0	0	0	---	0.00	30.067 
19:45	74.6	74.6	74.6	77	66.9	0	0	---	0.00	30.068 
19:50	74.0	74.0	74.0	79	67.1	0	0	---	0.00	30.070 
19:55	73.7	73.7	73.7	80	67.1	0	0	---	0.00	30.071 
20:00	73.5	73.5	73.5	81	67.3	0	0	---	0.00	30.072 
20:05	73.0	73.0	73.0	81	66.8	0	0	---	0.00	30.068 
20:10	72.7	72.7	72.7	82	66.9	0	0	---	0.00	30.068 
20:15	72.5	72.5	72.5	83	67.0	0	0	---	0.00	30.068 
20:20	72.1	72.1	72.1	84	67.0	0	0	---	0.00	30.071 
20:25	71.8	71.8	71.8	84	66.7	0	0	---	0.00	30.073 
20:30	71.6	71.6	71.6	84	66.5	0	0	---	0.00	30.073 
20:35	71.5	71.5	71.5	85	66.7	0	0	---	0.00	30.075 
20:40	71.6	71.6	71.6	84	66.5	0	0	---	0.00	30.078 
20:45	71.8	71.8	71.8	83	66.3	0	0	---	0.00	30.080 
20:50	72.1	72.1	72.1	81	65.9	0	0	---	0.00	30.080 
20:55	72.5	72.5	72.5	79	65.6	0	0	---	0.00	30.080 
21:00	72.5	72.5	72.5	77	64.9	0	0	---	0.00	30.081 
21:05	72.5	72.5	72.5	76	64.5	0	0	---	0.00	30.077 
21:10	72.5	72.5	72.5	75	64.1	0	1	315	0.00	30.079 
21:15	72.5	72.5	72.5	74	63.7	0	0	---	0.00	30.078 
21:20	72.5	72.5	72.5	74	63.7	0	1	315	0.00	30.078 
21:25	72.3	72.3	72.3	74	63.5	0	0	---	0.00	30.079 
21:30	72.1	72.1	72.1	74	63.3	0	0	---	0.00	30.081 
21:35	72.0	72.0	72.0	73	62.9	0	0	---	0.00	30.080 
21:40	71.8	71.8	71.8	73	62.7	0	0	---	0.00	30.081 
21:45	71.6	71.6	71.6	73	62.5	0	0	---	0.00	30.081 
21:50	71.5	71.5	71.5	73	62.4	0	0	---	0.00	30.081 
21:55	71.1	71.1	71.1	74	62.4	0	0	---	0.00	30.081 
22:00	70.9	70.9	70.9	74	62.2	0	1	315	0.00	30.082 
22:05	70.8	70.8	70.8	73	61.7	0	0	---	0.00	30.080 
22:10	70.8	70.8	70.8	73	61.7	0	1	315	0.00	30.082 
22:15	70.6	70.6	70.6	73	61.5	0	0	---	0.00	30.082 
22:20	70.4	70.4	70.4	73	61.3	0	1	315	0.00	30.082 
22:25	70.3	70.3	70.3	74	61.6	0	0	---	0.00	30.080 
22:30	69.9	69.9	69.9	74	61.2	0	0	---	0.00	30.080 
22:35	69.8	69.8	69.8	74	61.1	0	1	315	0.00	30.080 
22:40	69.4	69.4	69.4	74	60.7	0	0	---	0.00	30.081 
22:45	69.3	69.3	69.3	75	61.0	0	0	---	0.00	30.082 
22:50	69.1	69.1	69.1	75	60.8	0	0	---	0.00	30.082 
22:55	68.9	68.9	68.9	75	60.6	0	0	---	0.00	30.083 
23:00	68.6	68.6	68.6	76	60.7	0	0	---	0.00	30.082 
23:05	68.4	68.4	68.4	76	60.5	0	0	---	0.00	30.081 
23:10	68.1	68.1	68.1	77	60.6	0	0	---	0.00	30.081 
23:15	67.9	67.9	67.9	77	60.4	0	0	---	0.00	30.082 
23:20	67.6	67.6	67.6	77	60.1	0	0	---	0.00	30.083 
23:25	67.4	67.4	67.4	78	60.3	0	0	---	0.00	30.083 
23:30	67.3	67.3	67.3	79	60.6	0	0	---	0.00	30.083 
23:35	66.9	66.9	66.9	79	60.2	0	0	---	0.00	30.083 
23:40	66.8	66.8	66.8	80	60.4	0	0	---	0.00	30.086 
23:45	66.6	66.6	66.6	81	60.6	0	0	---	0.00	30.086 
23:50	66.4	66.4	66.4	81	60.4	0	0	---	0.00	30.088 
23:55	66.1	66.1	66.1	81	60.1	0	0	---	0.00	30.086 

CoCoRaHS
IN-AL-39
A2 Web Hosting
Creative Commons License
GoDaddy
Look for:

loaded 2017-12-12 15:01:35 • last modified 2010-11-18 10:43:29
Privacy PolicyDisclaimer
• wx.awcolley.com is powered by PmWiki v.2002016 •
• all content (unless otherwise noted) © 2017 A W Colley